sensor_id;sensor_type;location;lat;lon;timestamp;temperature;humidity
38854;DHT22;24606;51.992;4.198;2023-05-16T00:02:26;18.50;77.80
38854;DHT22;24606;51.992;4.198;2023-05-16T00:07:28;17.80;82.00
38854;DHT22;24606;51.992;4.198;2023-05-16T00:12:31;18.70;75.80
38854;DHT22;24606;51.992;4.198;2023-05-16T00:17:33;18.20;79.10
38854;DHT22;24606;51.992;4.198;2023-05-16T00:22:35;18.20;79.60
38854;DHT22;24606;51.992;4.198;2023-05-16T00:27:39;17.20;89.30
38854;DHT22;24606;51.992;4.198;2023-05-16T00:32:40;18.50;77.80
38854;DHT22;24606;51.992;4.198;2023-05-16T00:37:43;18.30;78.90
38854;DHT22;24606;51.992;4.198;2023-05-16T00:42:46;18.50;76.30
38854;DHT22;24606;51.992;4.198;2023-05-16T00:47:49;17.30;85.10
38854;DHT22;24606;51.992;4.198;2023-05-16T00:52:51;17.80;82.60
38854;DHT22;24606;51.992;4.198;2023-05-16T00:57:55;18.40;76.90
38854;DHT22;24606;51.992;4.198;2023-05-16T01:02:58;18.60;75.50
38854;DHT22;24606;51.992;4.198;2023-05-16T01:08:00;17.30;81.40
38854;DHT22;24606;51.992;4.198;2023-05-16T01:13:10;17.70;81.10
38854;DHT22;24606;51.992;4.198;2023-05-16T01:18:17;18.10;72.50
38854;DHT22;24606;51.992;4.198;2023-05-16T01:23:37;17.90;81.00
38854;DHT22;24606;51.992;4.198;2023-05-16T01:28:43;18.30;77.70
38854;DHT22;24606;51.992;4.198;2023-05-16T01:33:46;17.00;72.70
38854;DHT22;24606;51.992;4.198;2023-05-16T01:38:51;18.50;75.70
38854;DHT22;24606;51.992;4.198;2023-05-16T01:44:04;16.80;86.70
38854;DHT22;24606;51.992;4.198;2023-05-16T01:49:15;17.30;86.00
38854;DHT22;24606;51.992;4.198;2023-05-16T01:54:18;17.70;82.70
38854;DHT22;24606;51.992;4.198;2023-05-16T01:59:23;17.20;87.50
38854;DHT22;24606;51.992;4.198;2023-05-16T02:04:25;17.00;82.40
38854;DHT22;24606;51.992;4.198;2023-05-16T02:09:27;18.00;75.00
38854;DHT22;24606;51.992;4.198;2023-05-16T02:14:30;17.60;79.50
38854;DHT22;24606;51.992;4.198;2023-05-16T02:19:32;18.10;77.50
38854;DHT22;24606;51.992;4.198;2023-05-16T02:24:34;18.00;76.70
38854;DHT22;24606;51.992;4.198;2023-05-16T02:29:37;17.80;80.10
38854;DHT22;24606;51.992;4.198;2023-05-16T02:34:39;16.20;88.30
38854;DHT22;24606;51.992;4.198;2023-05-16T02:39:42;14.50;95.80
38854;DHT22;24606;51.992;4.198;2023-05-16T02:44:45;16.30;92.20
38854;DHT22;24606;51.992;4.198;2023-05-16T02:49:47;15.90;90.70
38854;DHT22;24606;51.992;4.198;2023-05-16T02:54:49;16.70;67.90
38854;DHT22;24606;51.992;4.198;2023-05-16T03:15:29;14.70;96.40
38854;DHT22;24606;51.992;4.198;2023-05-16T03:20:31;15.40;92.40
38854;DHT22;24606;51.992;4.198;2023-05-16T03:25:33;16.70;77.70
38854;DHT22;24606;51.992;4.198;2023-05-16T03:30:37;17.10;85.10
38854;DHT22;24606;51.992;4.198;2023-05-16T03:35:39;16.70;73.90
38854;DHT22;24606;51.992;4.198;2023-05-16T03:40:41;17.00;84.10
38854;DHT22;24606;51.992;4.198;2023-05-16T03:45:44;16.10;91.10
38854;DHT22;24606;51.992;4.198;2023-05-16T03:50:46;15.90;70.80
38854;DHT22;24606;51.992;4.198;2023-05-16T03:55:48;15.20;94.60
38854;DHT22;24606;51.992;4.198;2023-05-16T04:00:51;15.80;91.70
38854;DHT22;24606;51.992;4.198;2023-05-16T04:05:53;14.80;96.10
38854;DHT22;24606;51.992;4.198;2023-05-16T04:10:55;17.00;83.40
38854;DHT22;24606;51.992;4.198;2023-05-16T04:15:58;17.20;82.50
38854;DHT22;24606;51.992;4.198;2023-05-16T04:21:00;16.50;77.90
38854;DHT22;24606;51.992;4.198;2023-05-16T04:26:02;15.00;94.10
38854;DHT22;24606;51.992;4.198;2023-05-16T04:31:06;14.70;72.10
38854;DHT22;24606;51.992;4.198;2023-05-16T04:36:08;15.60;95.20
38854;DHT22;24606;51.992;4.198;2023-05-16T04:41:09;17.00;87.50
38854;DHT22;24606;51.992;4.198;2023-05-16T04:46:13;16.80;85.50
38854;DHT22;24606;51.992;4.198;2023-05-16T04:51:15;15.80;77.20
38854;DHT22;24606;51.992;4.198;2023-05-16T04:56:18;15.80;93.40
38854;DHT22;24606;51.992;4.198;2023-05-16T05:01:21;14.50;79.80
38854;DHT22;24606;51.992;4.198;2023-05-16T05:06:23;14.80;91.40
38854;DHT22;24606;51.992;4.198;2023-05-16T05:11:25;14.20;97.00
38854;DHT22;24606;51.992;4.198;2023-05-16T05:16:29;15.80;92.90
38854;DHT22;24606;51.992;4.198;2023-05-16T05:21:31;15.10;96.10
38854;DHT22;24606;51.992;4.198;2023-05-16T05:26:33;15.40;80.60
38854;DHT22;24606;51.992;4.198;2023-05-16T05:31:36;16.40;79.50
38854;DHT22;24606;51.992;4.198;2023-05-16T05:36:38;16.70;82.20
38854;DHT22;24606;51.992;4.198;2023-05-16T05:41:40;17.00;81.20
38854;DHT22;24606;51.992;4.198;2023-05-16T05:46:43;16.80;83.70
38854;DHT22;24606;51.992;4.198;2023-05-16T05:51:46;15.60;88.70
38854;DHT22;24606;51.992;4.198;2023-05-16T05:56:47;15.90;90.80
38854;DHT22;24606;51.992;4.198;2023-05-16T06:01:51;16.00;83.20
38854;DHT22;24606;51.992;4.198;2023-05-16T06:06:52;16.60;89.80
38854;DHT22;24606;51.992;4.198;2023-05-16T06:11:54;18.10;77.90
38854;DHT22;24606;51.992;4.198;2023-05-16T06:16:58;18.80;65.60
38854;DHT22;24606;51.992;4.198;2023-05-16T06:21:59;18.80;72.10
38854;DHT22;24606;51.992;4.198;2023-05-16T06:27:01;18.10;76.70
38854;DHT22;24606;51.992;4.198;2023-05-16T06:32:05;18.30;69.40
38854;DHT22;24606;51.992;4.198;2023-05-16T06:37:07;18.40;62.10
38854;DHT22;24606;51.992;4.198;2023-05-16T06:42:09;18.00;78.80
38854;DHT22;24606;51.992;4.198;2023-05-16T06:47:13;18.30;76.50
38854;DHT22;24606;51.992;4.198;2023-05-16T06:52:15;16.40;81.60
38854;DHT22;24606;51.992;4.198;2023-05-16T06:57:17;17.10;67.80
38854;DHT22;24606;51.992;4.198;2023-05-16T07:02:21;17.10;89.80
38854;DHT22;24606;51.992;4.198;2023-05-16T07:07:22;17.80;84.40
38854;DHT22;24606;51.992;4.198;2023-05-16T07:12:24;16.40;80.80
38854;DHT22;24606;51.992;4.198;2023-05-16T07:17:28;18.50;76.30
38854;DHT22;24606;51.992;4.198;2023-05-16T07:22:30;16.40;90.50
38854;DHT22;24606;51.992;4.198;2023-05-16T07:27:31;17.90;83.80
38854;DHT22;24606;51.992;4.198;2023-05-16T07:32:35;17.80;80.80
38854;DHT22;24606;51.992;4.198;2023-05-16T07:37:37;17.50;81.70
38854;DHT22;24606;51.992;4.198;2023-05-16T07:42:40;17.10;84.90
38854;DHT22;24606;51.992;4.198;2023-05-16T07:47:44;18.20;72.90
38854;DHT22;24606;51.992;4.198;2023-05-16T07:52:46;17.00;76.70
38854;DHT22;24606;51.992;4.198;2023-05-16T07:57:48;17.20;79.80
38854;DHT22;24606;51.992;4.198;2023-05-16T08:02:52;19.40;66.90
38854;DHT22;24606;51.992;4.198;2023-05-16T08:07:54;19.10;68.80
38854;DHT22;24606;51.992;4.198;2023-05-16T08:12:56;17.00;75.80
38854;DHT22;24606;51.992;4.198;2023-05-16T08:17:59;18.90;71.90
38854;DHT22;24606;51.992;4.198;2023-05-16T08:23:01;19.00;71.10
38854;DHT22;24606;51.992;4.198;2023-05-16T08:28:03;17.70;75.00
38854;DHT22;24606;51.992;4.198;2023-05-16T08:33:06;18.40;77.00
38854;DHT22;24606;51.992;4.198;2023-05-16T08:38:09;18.10;74.20
38854;DHT22;24606;51.992;4.198;2023-05-16T08:43:11;17.70;68.20
38854;DHT22;24606;51.992;4.198;2023-05-16T08:48:15;17.20;76.70
38854;DHT22;24606;51.992;4.198;2023-05-16T08:53:21;18.50;69.40
38854;DHT22;24606;51.992;4.198;2023-05-16T08:58:27;16.10;62.20
38854;DHT22;24606;51.992;4.198;2023-05-16T09:03:31;17.00;67.00
38854;DHT22;24606;51.992;4.198;2023-05-16T09:08:32;19.20;68.00
38854;DHT22;24606;51.992;4.198;2023-05-16T09:13:36;18.10;58.30
38854;DHT22;24606;51.992;4.198;2023-05-16T09:18:43;17.40;57.90
38854;DHT22;24606;51.992;4.198;2023-05-16T09:23:47;16.30;88.10
38854;DHT22;24606;51.992;4.198;2023-05-16T09:28:53;17.10;82.50
38854;DHT22;24606;51.992;4.198;2023-05-16T09:33:57;18.70;64.10
38854;DHT22;24606;51.992;4.198;2023-05-16T09:38:59;17.20;84.90
38854;DHT22;24606;51.992;4.198;2023-05-16T09:44:03;17.40;81.30
38854;DHT22;24606;51.992;4.198;2023-05-16T09:49:06;17.50;66.40
38854;DHT22;24606;51.992;4.198;2023-05-16T09:54:12;17.60;71.20
38854;DHT22;24606;51.992;4.198;2023-05-16T09:59:14;18.20;78.50
38854;DHT22;24606;51.992;4.198;2023-05-16T10:04:18;15.70;79.80
38854;DHT22;24606;51.992;4.198;2023-05-16T10:09:20;16.80;91.00
38854;DHT22;24606;51.992;4.198;2023-05-16T10:14:23;17.40;83.70
38854;DHT22;24606;51.992;4.198;2023-05-16T10:19:29;15.80;74.40
38854;DHT22;24606;51.992;4.198;2023-05-16T10:24:38;16.50;81.10
38854;DHT22;24606;51.992;4.198;2023-05-16T10:29:44;16.00;95.40
38854;DHT22;24606;51.992;4.198;2023-05-16T10:34:47;17.10;90.20
38854;DHT22;24606;51.992;4.198;2023-05-16T10:39:49;19.10;75.10
38854;DHT22;24606;51.992;4.198;2023-05-16T10:44:53;18.60;80.00
38854;DHT22;24606;51.992;4.198;2023-05-16T10:49:57;17.30;69.30
38854;DHT22;24606;51.992;4.198;2023-05-16T10:55:01;16.80;70.50
38854;DHT22;24606;51.992;4.198;2023-05-16T11:00:06;16.60;92.10
38854;DHT22;24606;51.992;4.198;2023-05-16T11:05:17;16.40;89.60
38854;DHT22;24606;51.992;4.198;2023-05-16T11:10:19;17.60;91.00
38854;DHT22;24606;51.992;4.198;2023-05-16T11:15:26;16.10;69.90
38854;DHT22;24606;51.992;4.198;2023-05-16T11:20:31;16.10;91.70
38854;DHT22;24606;51.992;4.198;2023-05-16T11:25:35;16.10;70.80
38854;DHT22;24606;51.992;4.198;2023-05-16T11:30:41;17.50;88.00
38854;DHT22;24606;51.992;4.198;2023-05-16T11:35:59;17.20;80.10
38854;DHT22;24606;51.992;4.198;2023-05-16T11:41:06;17.20;69.90
38854;DHT22;24606;51.992;4.198;2023-05-16T11:46:10;16.20;67.30
38854;DHT22;24606;51.992;4.198;2023-05-16T11:51:17;18.10;87.60
38854;DHT22;24606;51.992;4.198;2023-05-16T11:56:20;16.40;76.70
38854;DHT22;24606;51.992;4.198;2023-05-16T12:01:22;16.90;82.00
38854;DHT22;24606;51.992;4.198;2023-05-16T12:06:26;17.80;80.10
38854;DHT22;24606;51.992;4.198;2023-05-16T12:11:29;18.80;80.70
38854;DHT22;24606;51.992;4.198;2023-05-16T12:16:31;16.80;68.90
38854;DHT22;24606;51.992;4.198;2023-05-16T12:21:35;18.20;84.10
38854;DHT22;24606;51.992;4.198;2023-05-16T12:26:39;18.90;81.60
38854;DHT22;24606;51.992;4.198;2023-05-16T12:31:43;18.50;61.00
38854;DHT22;24606;51.992;4.198;2023-05-16T12:36:50;17.20;67.40
38854;DHT22;24606;51.992;4.198;2023-05-16T12:41:52;16.50;90.60
38854;DHT22;24606;51.992;4.198;2023-05-16T12:46:54;18.00;73.10
38854;DHT22;24606;51.992;4.198;2023-05-16T12:51:59;18.00;70.70
38854;DHT22;24606;51.992;4.198;2023-05-16T12:57:05;17.80;60.70
38854;DHT22;24606;51.992;4.198;2023-05-16T13:02:10;17.00;65.20
38854;DHT22;24606;51.992;4.198;2023-05-16T13:07:13;17.10;93.20
38854;DHT22;24606;51.992;4.198;2023-05-16T13:12:17;16.90;66.80
38854;DHT22;24606;51.992;4.198;2023-05-16T13:17:18;18.00;64.10
38854;DHT22;24606;51.992;4.198;2023-05-16T13:22:22;19.60;61.50
38854;DHT22;24606;51.992;4.198;2023-05-16T13:27:24;18.20;58.00
38854;DHT22;24606;51.992;4.198;2023-05-16T13:32:25;17.70;63.00
38854;DHT22;24606;51.992;4.198;2023-05-16T13:37:29;17.80;75.90
38854;DHT22;24606;51.992;4.198;2023-05-16T13:42:31;19.60;72.60
38854;DHT22;24606;51.992;4.198;2023-05-16T13:47:33;18.70;62.00
38854;DHT22;24606;51.992;4.198;2023-05-16T13:52:37;18.80;81.70
38854;DHT22;24606;51.992;4.198;2023-05-16T13:57:39;19.60;55.50
38854;DHT22;24606;51.992;4.198;2023-05-16T14:02:42;19.40;89.70
38854;DHT22;24606;51.992;4.198;2023-05-16T14:07:45;19.00;91.70
38854;DHT22;24606;51.992;4.198;2023-05-16T14:12:46;20.00;71.40
38854;DHT22;24606;51.992;4.198;2023-05-16T14:17:49;20.00;71.00
38854;DHT22;24606;51.992;4.198;2023-05-16T14:22:52;19.50;75.10
38854;DHT22;24606;51.992;4.198;2023-05-16T14:27:54;20.40;63.80
38854;DHT22;24606;51.992;4.198;2023-05-16T14:32:56;21.50;91.90
38854;DHT22;24606;51.992;4.198;2023-05-16T14:38:00;19.90;62.10
38854;DHT22;24606;51.992;4.198;2023-05-16T14:43:01;20.60;93.40
38854;DHT22;24606;51.992;4.198;2023-05-16T14:48:05;20.70;62.60
38854;DHT22;24606;51.992;4.198;2023-05-16T14:53:09;20.80;61.40
38854;DHT22;24606;51.992;4.198;2023-05-16T14:58:10;19.30;84.30
38854;DHT22;24606;51.992;4.198;2023-05-16T15:03:12;18.90;68.00
38854;DHT22;24606;51.992;4.198;2023-05-16T15:08:15;21.30;69.40
38854;DHT22;24606;51.992;4.198;2023-05-16T15:13:17;18.80;78.70
38854;DHT22;24606;51.992;4.198;2023-05-16T15:18:20;19.30;96.70
38854;DHT22;24606;51.992;4.198;2023-05-16T15:23:23;20.10;99.90
38854;DHT22;24606;51.992;4.198;2023-05-16T15:28:25;20.50;75.00
38854;DHT22;24606;51.992;4.198;2023-05-16T15:33:27;20.60;99.50
38854;DHT22;24606;51.992;4.198;2023-05-16T15:38:30;21.20;71.30
38854;DHT22;24606;51.992;4.198;2023-05-16T15:43:32;19.30;68.00
38854;DHT22;24606;51.992;4.198;2023-05-16T15:48:34;20.40;98.20
38854;DHT22;24606;51.992;4.198;2023-05-16T15:53:37;21.10;93.20
38854;DHT22;24606;51.992;4.198;2023-05-16T15:58:39;20.80;66.20
38854;DHT22;24606;51.992;4.198;2023-05-16T16:03:41;21.30;91.90
38854;DHT22;24606;51.992;4.198;2023-05-16T16:08:44;21.40;96.50
38854;DHT22;24606;51.992;4.198;2023-05-16T16:13:46;22.30;56.80
38854;DHT22;24606;51.992;4.198;2023-05-16T16:18:48;21.10;65.20
38854;DHT22;24606;51.992;4.198;2023-05-16T16:23:52;20.70;61.30
38854;DHT22;24606;51.992;4.198;2023-05-16T16:28:53;22.00;69.70
38854;DHT22;24606;51.992;4.198;2023-05-16T16:33:55;21.30;80.50
38854;DHT22;24606;51.992;4.198;2023-05-16T16:38:59;22.10;91.00
38854;DHT22;24606;51.992;4.198;2023-05-16T16:44:00;20.60;78.30
38854;DHT22;24606;51.992;4.198;2023-05-16T16:49:03;21.60;90.80
38854;DHT22;24606;51.992;4.198;2023-05-16T16:54:06;22.70;84.10
38854;DHT22;24606;51.992;4.198;2023-05-16T16:59:08;20.10;60.30
38854;DHT22;24606;51.992;4.198;2023-05-16T17:04:11;20.40;97.80
38854;DHT22;24606;51.992;4.198;2023-05-16T17:09:15;21.30;74.80
38854;DHT22;24606;51.992;4.198;2023-05-16T17:14:18;21.30;97.40
38854;DHT22;24606;51.992;4.198;2023-05-16T17:19:21;19.40;99.00
38854;DHT22;24606;51.992;4.198;2023-05-16T17:24:24;21.60;75.20
38854;DHT22;24606;51.992;4.198;2023-05-16T17:29:26;21.10;68.80
38854;DHT22;24606;51.992;4.198;2023-05-16T17:34:27;21.80;73.00
38854;DHT22;24606;51.992;4.198;2023-05-16T17:39:31;22.90;59.30
38854;DHT22;24606;51.992;4.198;2023-05-16T17:44:33;22.60;67.10
38854;DHT22;24606;51.992;4.198;2023-05-16T17:49:35;23.30;57.20
38854;DHT22;24606;51.992;4.198;2023-05-16T17:54:38;22.70;86.10
38854;DHT22;24606;51.992;4.198;2023-05-16T17:59:40;22.40;86.20
38854;DHT22;24606;51.992;4.198;2023-05-16T18:04:42;21.70;77.10
38854;DHT22;24606;51.992;4.198;2023-05-16T18:09:45;22.10;59.80
38854;DHT22;24606;51.992;4.198;2023-05-16T18:14:47;19.60;99.20
38854;DHT22;24606;51.992;4.198;2023-05-16T18:19:48;20.70;96.80
38854;DHT22;24606;51.992;4.198;2023-05-16T18:24:51;22.20;69.00
38854;DHT22;24606;51.992;4.198;2023-05-16T18:29:53;22.50;92.30
38854;DHT22;24606;51.992;4.198;2023-05-16T18:34:55;20.50;76.90
38854;DHT22;24606;51.992;4.198;2023-05-16T18:39:58;21.30;95.90
38854;DHT22;24606;51.992;4.198;2023-05-16T18:45:01;23.50;67.80
38854;DHT22;24606;51.992;4.198;2023-05-16T18:50:03;21.60;92.40
38854;DHT22;24606;51.992;4.198;2023-05-16T18:55:07;22.30;87.20
38854;DHT22;24606;51.992;4.198;2023-05-16T19:00:10;23.80;65.60
38854;DHT22;24606;51.992;4.198;2023-05-16T19:05:20;23.50;76.30
38854;DHT22;24606;51.992;4.198;2023-05-16T19:10:23;22.40;69.20
38854;DHT22;24606;51.992;4.198;2023-05-16T19:15:25;21.20;71.40
38854;DHT22;24606;51.992;4.198;2023-05-16T19:20:27;23.50;76.50
38854;DHT22;24606;51.992;4.198;2023-05-16T19:25:30;23.10;76.70
38854;DHT22;24606;51.992;4.198;2023-05-16T19:30:32;24.40;69.30
38854;DHT22;24606;51.992;4.198;2023-05-16T19:35:34;24.40;68.30
38854;DHT22;24606;51.992;4.198;2023-05-16T19:40:39;24.50;67.90
38854;DHT22;24606;51.992;4.198;2023-05-16T19:45:41;24.30;67.40
38854;DHT22;24606;51.992;4.198;2023-05-16T19:50:43;23.50;70.90
38854;DHT22;24606;51.992;4.198;2023-05-16T19:55:46;24.10;67.70
38854;DHT22;24606;51.992;4.198;2023-05-16T20:00:48;23.70;70.80
38854;DHT22;24606;51.992;4.198;2023-05-16T20:05:51;23.40;72.30
38854;DHT22;24606;51.992;4.198;2023-05-16T20:10:54;24.10;67.90
38854;DHT22;24606;51.992;4.198;2023-05-16T20:15:56;24.20;66.60
38854;DHT22;24606;51.992;4.198;2023-05-16T20:20:58;23.90;68.00
38854;DHT22;24606;51.992;4.198;2023-05-16T20:26:01;24.00;66.70
38854;DHT22;24606;51.992;4.198;2023-05-16T20:31:03;23.90;66.80
38854;DHT22;24606;51.992;4.198;2023-05-16T20:36:05;24.10;65.90
38854;DHT22;24606;51.992;4.198;2023-05-16T20:41:08;24.10;65.70
38854;DHT22;24606;51.992;4.198;2023-05-16T20:46:10;24.00;65.50
38854;DHT22;24606;51.992;4.198;2023-05-16T20:51:12;23.90;65.50
38854;DHT22;24606;51.992;4.198;2023-05-16T20:56:15;23.90;65.40
38854;DHT22;24606;51.992;4.198;2023-05-16T21:01:17;23.90;65.30
38854;DHT22;24606;51.992;4.198;2023-05-16T21:06:19;23.80;65.20
38854;DHT22;24606;51.992;4.198;2023-05-16T21:11:22;23.80;65.50
38854;DHT22;24606;51.992;4.198;2023-05-16T21:16:24;23.70;65.40
38854;DHT22;24606;51.992;4.198;2023-05-16T21:21:26;23.70;65.20
38854;DHT22;24606;51.992;4.198;2023-05-16T21:26:29;23.70;65.30
38854;DHT22;24606;51.992;4.198;2023-05-16T21:31:31;23.40;62.60
38854;DHT22;24606;51.992;4.198;2023-05-16T21:36:33;23.10;67.10
38854;DHT22;24606;51.992;4.198;2023-05-16T21:41:36;22.90;68.40
38854;DHT22;24606;51.992;4.198;2023-05-16T21:46:38;23.30;66.30
38854;DHT22;24606;51.992;4.198;2023-05-16T21:51:40;21.00;69.70
38854;DHT22;24606;51.992;4.198;2023-05-16T21:56:43;23.00;68.00
38854;DHT22;24606;51.992;4.198;2023-05-16T22:01:45;22.10;63.90
38854;DHT22;24606;51.992;4.198;2023-05-16T22:06:47;22.70;69.30
38854;DHT22;24606;51.992;4.198;2023-05-16T22:11:50;22.80;67.90
38854;DHT22;24606;51.992;4.198;2023-05-16T22:16:51;22.80;67.50
38854;DHT22;24606;51.992;4.198;2023-05-16T22:21:53;22.40;69.30
38854;DHT22;24606;51.992;4.198;2023-05-16T22:26:56;22.60;68.60
38854;DHT22;24606;51.992;4.198;2023-05-16T22:31:58;22.50;67.80
38854;DHT22;24606;51.992;4.198;2023-05-16T22:37:00;22.60;67.90
38854;DHT22;24606;51.992;4.198;2023-05-16T22:42:04;21.20;74.60
38854;DHT22;24606;51.992;4.198;2023-05-16T22:47:06;21.70;70.70
38854;DHT22;24606;51.992;4.198;2023-05-16T22:52:07;21.30;73.70
38854;DHT22;24606;51.992;4.198;2023-05-16T22:57:10;21.70;71.20
38854;DHT22;24606;51.992;4.198;2023-05-16T23:02:12;21.20;72.30
38854;DHT22;24606;51.992;4.198;2023-05-16T23:07:14;20.90;76.30
38854;DHT22;24606;51.992;4.198;2023-05-16T23:12:17;19.80;66.50
38854;DHT22;24606;51.992;4.198;2023-05-16T23:17:20;21.10;68.50
38854;DHT22;24606;51.992;4.198;2023-05-16T23:22:22;22.10;69.50
38854;DHT22;24606;51.992;4.198;2023-05-16T23:27:26;21.90;70.70
38854;DHT22;24606;51.992;4.198;2023-05-16T23:32:28;21.30;74.40
38854;DHT22;24606;51.992;4.198;2023-05-16T23:37:30;21.90;70.00
38854;DHT22;24606;51.992;4.198;2023-05-16T23:42:33;22.00;69.20
38854;DHT22;24606;51.992;4.198;2023-05-16T23:47:36;21.50;72.10
38854;DHT22;24606;51.992;4.198;2023-05-16T23:52:38;22.00;68.50
38854;DHT22;24606;51.992;4.198;2023-05-16T23:57:41;22.20;67.40
